Time;durP1;ratioP1;P1;durP2;ratioP2;P2;SDS_P1;SDS_P2;PMS_P1;PMS_P2;Temp;Humidity;BMP_temperature;BMP_pressure;BME280_temperature;BME280_humidity;BME280_pressure;Samples;Min_cycle;Max_cycle;Signal;HPM_P1;HPM_P2
2023/12/25 00:00:29;;;;;;;2.92;1.88;;;;;;;;;;1037649;28;20056;-64
2023/12/25 00:01:20;;;;;;;3.35;1.80;;;;;;;;;;1037351;28;20045;-64
2023/12/25 00:01:51;;;;;;;3.65;1.60;;;;;;;;;;1037576;28;20151;-64
2023/12/25 00:02:21;;;;;;;2.50;2.13;;;;;;;;;;1038839;28;20136;-63
2023/12/25 00:02:52;;;;;;;1.92;1.67;;;;;;;;;;1038192;28;20060;-64
2023/12/25 00:03:22;;;;;;;2.13;1.73;;;;;;;;;;1038890;28;20053;-64
2023/12/25 00:03:54;;;;;;;2.63;1.80;;;;;;;;;;1037111;28;20103;-63
2023/12/25 00:04:24;;;;;;;2.08;1.63;;;;;;;;;;1038148;28;20054;-63
2023/12/25 00:04:54;;;;;;;2.47;1.67;;;;;;;;;;1039102;28;20053;-64
2023/12/25 00:05:25;;;;;;;1.80;1.70;;;;;;;;;;1036501;28;20115;-63
2023/12/25 00:05:55;;;;;;;1.63;1.52;;;;;;;;;;1038150;28;20073;-63
2023/12/25 00:06:26;;;;;;;2.08;1.80;;;;;;;;;;1037723;28;20061;-63
2023/12/25 00:06:57;;;;;;;1.67;1.58;;;;;;;;;;1038681;28;20046;-63
2023/12/25 00:07:27;;;;;;;3.05;1.88;;;;;;;;;;1036549;28;20045;-64
2023/12/25 00:07:58;;;;;;;1.92;1.75;;;;;;;;;;1038831;28;20379;-64
2023/12/25 00:08:28;;;;;;;3.13;1.70;;;;;;;;;;1038118;28;20711;-63
2023/12/25 00:08:59;;;;;;;1.85;1.75;;;;;;;;;;1038120;28;20058;-64
2023/12/25 00:09:29;;;;;;;1.80;1.70;;;;;;;;;;1038025;28;20130;-64
2023/12/25 00:09:59;;;;;;;1.97;1.53;;;;;;;;;;689338;28;10000918;-64
2023/12/25 00:10:30;;;;;;;2.92;1.95;;;;;;;;;;1036917;28;20099;-63
2023/12/25 00:11:01;;;;;;;2.78;1.90;;;;;;;;;;1037513;28;20043;-64
2023/12/25 00:11:31;;;;;;;2.20;1.67;;;;;;;;;;1037043;28;20057;-63
2023/12/25 00:12:02;;;;;;;2.10;1.90;;;;;;;;;;1038405;28;20052;-64
2023/12/25 00:12:32;;;;;;;2.40;1.90;;;;;;;;;;1038405;28;20473;-63
2023/12/25 00:13:03;;;;;;;2.03;1.80;;;;;;;;;;1037831;28;20091;-64
2023/12/25 00:13:33;;;;;;;2.67;1.98;;;;;;;;;;1037529;28;20426;-64
2023/12/25 00:14:04;;;;;;;2.05;1.88;;;;;;;;;;1037943;28;20885;-64
2023/12/25 00:14:34;;;;;;;1.65;1.55;;;;;;;;;;1037962;28;20042;-63
2023/12/25 00:15:05;;;;;;;2.63;1.90;;;;;;;;;;1037564;28;20049;-64
2023/12/25 00:15:36;;;;;;;3.72;2.00;;;;;;;;;;1037159;28;20045;-63
2023/12/25 00:16:07;;;;;;;2.90;1.75;;;;;;;;;;1037204;28;20077;-63
2023/12/25 00:16:37;;;;;;;1.95;1.75;;;;;;;;;;1035747;28;20040;-64
2023/12/25 00:17:08;;;;;;;1.80;1.70;;;;;;;;;;1038125;28;20509;-64
2023/12/25 00:17:38;;;;;;;2.15;1.88;;;;;;;;;;1037755;28;20056;-64
2023/12/25 00:18:08;;;;;;;2.58;1.80;;;;;;;;;;1039776;28;20136;-63
2023/12/25 00:18:39;;;;;;;2.25;1.90;;;;;;;;;;1036114;28;20049;-64
2023/12/25 00:19:10;;;;;;;2.28;2.08;;;;;;;;;;1037045;28;20052;-64
2023/12/25 00:19:41;;;;;;;5.85;2.03;;;;;;;;;;1038291;28;20054;-64
2023/12/25 00:20:11;;;;;;;2.35;1.92;;;;;;;;;;1038160;28;20064;-63
2023/12/25 00:20:42;;;;;;;2.20;1.80;;;;;;;;;;1037856;28;20121;-64
2023/12/25 00:21:12;;;;;;;2.13;1.90;;;;;;;;;;1037842;28;20049;-64
2023/12/25 00:21:43;;;;;;;2.00;1.90;;;;;;;;;;1037112;28;21506;-63
2023/12/25 00:22:14;;;;;;;2.00;1.85;;;;;;;;;;1037452;28;20485;-64
2023/12/25 00:22:44;;;;;;;2.05;1.92;;;;;;;;;;1037246;28;20057;-64
2023/12/25 00:23:14;;;;;;;2.28;1.70;;;;;;;;;;1038460;28;20049;-64
2023/12/25 00:23:45;;;;;;;2.33;1.90;;;;;;;;;;1037047;28;20112;-64
2023/12/25 00:24:15;;;;;;;3.00;2.22;;;;;;;;;;1038890;28;20103;-64
2023/12/25 00:24:46;;;;;;;2.95;2.03;;;;;;;;;;1037561;28;20582;-63
2023/12/25 00:25:16;;;;;;;1.70;1.52;;;;;;;;;;1037533;28;20853;-64
2023/12/25 00:25:47;;;;;;;2.40;2.00;;;;;;;;;;1038477;28;20049;-63
2023/12/25 00:26:18;;;;;;;1.90;1.80;;;;;;;;;;1038336;28;20466;-63
2023/12/25 00:26:48;;;;;;;2.33;1.80;;;;;;;;;;1036326;28;20053;-64
2023/12/25 00:27:20;;;;;;;2.22;1.83;;;;;;;;;;1039024;28;20124;-63
2023/12/25 00:27:51;;;;;;;2.05;1.77;;;;;;;;;;1035520;28;20123;-63
2023/12/25 00:28:21;;;;;;;2.45;2.10;;;;;;;;;;1038401;28;20119;-64
2023/12/25 00:28:52;;;;;;;2.70;2.17;;;;;;;;;;1037265;28;20072;-64
2023/12/25 00:29:22;;;;;;;2.53;2.17;;;;;;;;;;1038661;28;20111;-64
2023/12/25 00:29:53;;;;;;;2.45;2.00;;;;;;;;;;1036520;28;20604;-64
2023/12/25 00:30:23;;;;;;;3.30;2.30;;;;;;;;;;1036890;28;21280;-64
2023/12/25 00:30:54;;;;;;;2.67;2.10;;;;;;;;;;1038298;28;20053;-63
2023/12/25 00:31:24;;;;;;;4.05;2.30;;;;;;;;;;1037816;28;20633;-64
2023/12/25 00:31:55;;;;;;;2.13;1.90;;;;;;;;;;1037826;28;20076;-64
2023/12/25 00:32:25;;;;;;;1.83;1.73;;;;;;;;;;1037306;28;20045;-64
2023/12/25 00:32:56;;;;;;;2.10;1.98;;;;;;;;;;1038032;28;20053;-63
2023/12/25 00:33:26;;;;;;;4.20;2.20;;;;;;;;;;1037237;28;20048;-64
2023/12/25 00:33:57;;;;;;;2.42;2.05;;;;;;;;;;1036538;28;20873;-64
2023/12/25 00:34:28;;;;;;;3.60;2.40;;;;;;;;;;1037628;28;20045;-64
2023/12/25 00:34:58;;;;;;;2.60;2.00;;;;;;;;;;1038519;28;20050;-64
2023/12/25 00:35:29;;;;;;;3.47;2.00;;;;;;;;;;1038382;28;20057;-64
2023/12/25 00:35:59;;;;;;;5.13;2.30;;;;;;;;;;1036863;28;20058;-64
2023/12/25 00:36:30;;;;;;;2.45;2.17;;;;;;;;;;1037680;28;20046;-64
2023/12/25 00:37:00;;;;;;;2.13;1.92;;;;;;;;;;1037684;28;20053;-64
2023/12/25 00:37:30;;;;;;;2.28;1.98;;;;;;;;;;1037869;28;20140;-64
2023/12/25 00:38:01;;;;;;;2.75;2.15;;;;;;;;;;1038227;28;20809;-64
2023/12/25 00:38:32;;;;;;;2.58;2.15;;;;;;;;;;1036961;28;20049;-64
2023/12/25 00:39:03;;;;;;;3.38;2.10;;;;;;;;;;1036205;28;20063;-64
2023/12/25 00:39:33;;;;;;;2.95;2.30;;;;;;;;;;1038040;28;20084;-63
2023/12/25 00:40:04;;;;;;;2.70;2.35;;;;;;;;;;1037405;28;20049;-64
2023/12/25 00:40:35;;;;;;;3.83;2.08;;;;;;;;;;1037363;28;20083;-64
2023/12/25 00:41:05;;;;;;;2.88;2.40;;;;;;;;;;1037837;28;20053;-64
2023/12/25 00:41:35;;;;;;;3.83;2.33;;;;;;;;;;1037305;28;20445;-63
2023/12/25 00:42:06;;;;;;;3.30;2.30;;;;;;;;;;1038586;28;20049;-63
2023/12/25 00:42:37;;;;;;;2.40;2.10;;;;;;;;;;1037825;28;20403;-64
2023/12/25 00:43:07;;;;;;;2.42;2.22;;;;;;;;;;1038076;28;20061;-64
2023/12/25 00:43:38;;;;;;;2.50;2.17;;;;;;;;;;1037129;28;20093;-64
2023/12/25 00:44:08;;;;;;;2.70;2.30;;;;;;;;;;1036117;28;20056;-63
2023/12/25 00:44:39;;;;;;;2.92;2.20;;;;;;;;;;1037435;28;20719;-64
2023/12/25 00:45:09;;;;;;;2.58;2.20;;;;;;;;;;1037626;28;20049;-63
2023/12/25 00:45:40;;;;;;;2.20;2.00;;;;;;;;;;1036122;28;20050;-64
2023/12/25 00:46:10;;;;;;;2.30;2.08;;;;;;;;;;1038820;28;20120;-63
2023/12/25 00:46:41;;;;;;;2.30;2.10;;;;;;;;;;1035785;28;20068;-63
2023/12/25 00:47:11;;;;;;;4.53;2.30;;;;;;;;;;1037264;28;20045;-64
2023/12/25 00:47:42;;;;;;;2.42;2.22;;;;;;;;;;1037565;28;20045;-63
2023/12/25 00:48:12;;;;;;;2.65;2.38;;;;;;;;;;1037706;28;20050;-63
2023/12/25 00:48:43;;;;;;;2.40;2.20;;;;;;;;;;1036505;28;20236;-64
2023/12/25 00:49:15;;;;;;;2.78;2.00;;;;;;;;;;1036299;28;20096;-64
2023/12/25 00:49:46;;;;;;;2.97;1.92;;;;;;;;;;1037444;28;20053;-63
2023/12/25 00:50:16;;;;;;;2.83;2.13;;;;;;;;;;1037459;28;20042;-64
2023/12/25 00:50:47;;;;;;;2.15;1.88;;;;;;;;;;1037037;28;20045;-64
2023/12/25 00:51:18;;;;;;;2.00;1.80;;;;;;;;;;1036626;28;20077;-64
2023/12/25 00:51:48;;;;;;;3.17;1.90;;;;;;;;;;1037148;28;20057;-64
2023/12/25 00:52:19;;;;;;;2.35;1.80;;;;;;;;;;1037899;28;20429;-64
2023/12/25 00:52:50;;;;;;;2.67;2.20;;;;;;;;;;1036854;28;20063;-64
2023/12/25 00:53:20;;;;;;;2.85;2.20;;;;;;;;;;1037462;28;20064;-64
2023/12/25 00:53:53;;;;;;;2.35;2.10;;;;;;;;;;1037401;28;20049;-64
2023/12/25 00:54:26;;;;;;;2.75;2.00;;;;;;;;;;1037084;28;20051;-64
2023/12/25 00:54:56;;;;;;;3.00;2.38;;;;;;;;;;1037065;28;20046;-64
2023/12/25 00:55:27;;;;;;;2.63;2.28;;;;;;;;;;1035363;28;20053;-64
2023/12/25 00:56:01;;;;;;;2.88;2.00;;;;;;;;;;1037220;28;20056;-64
2023/12/25 00:56:32;;;;;;;2.40;2.10;;;;;;;;;;1036335;28;20053;-64
2023/12/25 00:57:02;;;;;;;3.03;2.15;;;;;;;;;;1037113;28;20053;-64
2023/12/25 00:57:33;;;;;;;2.33;1.90;;;;;;;;;;1037499;28;20037;-63
2023/12/25 00:58:04;;;;;;;2.45;2.00;;;;;;;;;;1037187;28;20064;-64
2023/12/25 00:58:35;;;;;;;2.67;2.03;;;;;;;;;;1036749;28;20148;-64
2023/12/25 00:59:06;;;;;;;2.30;2.10;;;;;;;;;;1040397;28;20374;-63
2023/12/25 00:59:36;;;;;;;2.20;2.00;;;;;;;;;;1040718;28;20520;-64
2023/12/25 01:00:07;;;;;;;3.70;2.20;;;;;;;;;;1040153;28;20041;-64
2023/12/25 01:00:38;;;;;;;2.17;1.98;;;;;;;;;;1039883;28;20049;-64
2023/12/25 01:01:08;;;;;;;2.85;1.90;;;;;;;;;;1037623;28;20050;-63
2023/12/25 01:01:39;;;;;;;2.10;1.90;;;;;;;;;;1036727;28;20053;-63
2023/12/25 01:02:09;;;;;;;2.53;2.33;;;;;;;;;;1039109;28;20053;-63
2023/12/25 01:02:39;;;;;;;2.30;2.13;;;;;;;;;;1036498;28;20494;-64
2023/12/25 01:03:10;;;;;;;3.05;2.10;;;;;;;;;;1037579;28;20409;-64
2023/12/25 01:03:41;;;;;;;2.72;2.17;;;;;;;;;;1036823;28;20065;-64
2023/12/25 01:04:11;;;;;;;2.05;1.85;;;;;;;;;;1039593;28;20052;-63
2023/12/25 01:04:42;;;;;;;3.17;1.90;;;;;;;;;;1037505;28;20072;-63
2023/12/25 01:05:12;;;;;;;4.07;2.35;;;;;;;;;;1038413;28;20046;-64
2023/12/25 01:05:43;;;;;;;5.38;1.92;;;;;;;;;;1037290;28;20076;-64
2023/12/25 01:06:13;;;;;;;2.40;2.20;;;;;;;;;;1036962;28;20050;-63
2023/12/25 01:06:44;;;;;;;2.30;2.10;;;;;;;;;;1035973;28;20491;-64
2023/12/25 01:07:14;;;;;;;3.58;2.20;;;;;;;;;;1037722;28;20049;-63
2023/12/25 01:07:45;;;;;;;3.13;2.30;;;;;;;;;;1037323;28;20559;-64
2023/12/25 01:08:15;;;;;;;2.60;2.10;;;;;;;;;;1036466;28;20834;-63
2023/12/25 01:08:46;;;;;;;2.53;1.98;;;;;;;;;;1036840;28;20045;-64
2023/12/25 01:09:17;;;;;;;2.95;2.00;;;;;;;;;;1038444;28;20057;-63
2023/12/25 01:09:47;;;;;;;3.88;2.20;;;;;;;;;;1037309;28;20500;-64
2023/12/25 01:10:17;;;;;;;2.38;2.17;;;;;;;;;;1038498;28;20092;-64
2023/12/25 01:10:48;;;;;;;2.80;2.20;;;;;;;;;;1038838;28;20106;-64
2023/12/25 01:11:19;;;;;;;2.13;1.80;;;;;;;;;;1035882;28;20128;-64
2023/12/25 01:11:49;;;;;;;2.80;2.22;;;;;;;;;;1036954;28;20057;-64
2023/12/25 01:12:20;;;;;;;5.13;2.22;;;;;;;;;;1038195;28;20060;-64
2023/12/25 01:12:50;;;;;;;2.30;2.10;;;;;;;;;;1038670;28;20345;-63
2023/12/25 01:13:21;;;;;;;2.35;2.15;;;;;;;;;;1038458;28;20073;-63
2023/12/25 01:13:51;;;;;;;2.08;1.88;;;;;;;;;;1036486;28;20046;-63
2023/12/25 01:14:22;;;;;;;2.83;2.20;;;;;;;;;;1038366;28;20394;-63
2023/12/25 01:14:52;;;;;;;2.67;2.10;;;;;;;;;;1036468;28;20367;-64
2023/12/25 01:15:23;;;;;;;2.22;2.03;;;;;;;;;;1036680;28;20053;-63
2023/12/25 01:15:53;;;;;;;2.85;2.00;;;;;;;;;;1037754;28;20053;-63
2023/12/25 01:16:24;;;;;;;2.25;1.80;;;;;;;;;;1038035;28;20061;-63
2023/12/25 01:16:54;;;;;;;3.92;2.20;;;;;;;;;;1037109;28;20061;-64
2023/12/25 01:17:25;;;;;;;5.43;2.20;;;;;;;;;;1037530;28;20047;-63
2023/12/25 01:17:56;;;;;;;4.30;2.20;;;;;;;;;;1036661;28;20048;-64
2023/12/25 01:18:26;;;;;;;4.13;2.58;;;;;;;;;;1037580;28;20462;-64
2023/12/25 01:18:56;;;;;;;2.67;2.47;;;;;;;;;;1037712;28;20076;-63
2023/12/25 01:19:27;;;;;;;2.83;2.55;;;;;;;;;;1036614;28;20052;-63
2023/12/25 01:19:58;;;;;;;3.70;2.40;;;;;;;;;;1036340;28;20053;-64
2023/12/25 01:20:28;;;;;;;2.33;2.10;;;;;;;;;;1037859;28;20045;-63
2023/12/25 01:20:59;;;;;;;2.47;2.28;;;;;;;;;;1037273;28;20489;-64
2023/12/25 01:21:29;;;;;;;2.53;2.28;;;;;;;;;;1036988;28;20053;-64
2023/12/25 01:22:00;;;;;;;4.45;2.50;;;;;;;;;;1037225;28;20038;-64
2023/12/25 01:22:30;;;;;;;4.00;3.22;;;;;;;;;;1037274;28;20166;-63
2023/12/25 01:23:01;;;;;;;3.85;2.60;;;;;;;;;;1037364;28;20061;-63
2023/12/25 01:23:31;;;;;;;3.10;2.30;;;;;;;;;;1037436;28;20080;-63
2023/12/25 01:24:02;;;;;;;3.20;2.50;;;;;;;;;;1037077;28;20045;-63
2023/12/25 01:24:33;;;;;;;3.70;2.50;;;;;;;;;;1037647;28;20046;-64
2023/12/25 01:25:04;;;;;;;3.25;2.95;;;;;;;;;;1036023;28;20203;-63
2023/12/25 01:25:35;;;;;;;2.45;2.15;;;;;;;;;;1037709;28;20100;-64
2023/12/25 01:26:05;;;;;;;2.45;2.22;;;;;;;;;;1038531;28;20580;-64
2023/12/25 01:26:35;;;;;;;3.25;2.55;;;;;;;;;;1036568;28;20066;-63
2023/12/25 01:27:07;;;;;;;4.30;2.65;;;;;;;;;;1036616;28;20072;-63
2023/12/25 01:27:41;;;;;;;3.72;2.50;;;;;;;;;;1038456;28;20048;-63
2023/12/25 01:28:11;;;;;;;4.95;2.38;;;;;;;;;;1037621;28;20055;-63
2023/12/25 01:28:42;;;;;;;2.30;2.10;;;;;;;;;;1037131;28;20050;-64
2023/12/25 01:29:12;;;;;;;2.78;2.53;;;;;;;;;;1037043;28;20053;-64
2023/12/25 01:29:43;;;;;;;2.65;2.45;;;;;;;;;;1037706;28;20049;-64
2023/12/25 01:30:13;;;;;;;2.67;2.47;;;;;;;;;;1036755;28;20049;-62
2023/12/25 01:30:44;;;;;;;2.40;2.17;;;;;;;;;;1037286;28;20064;-62
2023/12/25 01:31:14;;;;;;;3.35;2.58;;;;;;;;;;1038170;28;20051;-62
2023/12/25 01:31:45;;;;;;;2.25;2.05;;;;;;;;;;1038096;28;20425;-62
2023/12/25 01:32:15;;;;;;;2.67;2.35;;;;;;;;;;1037948;28;20881;-62
2023/12/25 01:32:46;;;;;;;3.63;2.05;;;;;;;;;;1036939;28;20053;-62
2023/12/25 01:33:16;;;;;;;2.28;2.10;;;;;;;;;;1036254;28;20103;-62
2023/12/25 01:33:47;;;;;;;2.53;2.10;;;;;;;;;;1037147;28;20100;-62
2023/12/25 01:34:18;;;;;;;2.30;1.80;;;;;;;;;;1038004;28;20420;-62
2023/12/25 01:34:49;;;;;;;2.35;1.83;;;;;;;;;;1037712;28;20069;-62
2023/12/25 01:35:19;;;;;;;1.55;1.40;;;;;;;;;;1038487;28;20061;-63
2023/12/25 01:35:50;;;;;;;2.53;1.52;;;;;;;;;;1037518;28;20144;-62
2023/12/25 01:36:20;;;;;;;1.70;1.60;;;;;;;;;;1036337;28;20088;-62
2023/12/25 01:36:51;;;;;;;1.70;1.60;;;;;;;;;;1041589;28;20091;-62
2023/12/25 01:37:21;;;;;;;1.67;1.40;;;;;;;;;;1041235;28;20040;-62
2023/12/25 01:37:52;;;;;;;1.55;1.35;;;;;;;;;;1042198;28;20087;-62
2023/12/25 01:38:22;;;;;;;2.15;1.40;;;;;;;;;;1040943;28;20055;-62
2023/12/25 01:38:53;;;;;;;1.48;1.33;;;;;;;;;;1038288;28;20175;-62
2023/12/25 01:39:23;;;;;;;1.67;1.58;;;;;;;;;;1036576;28;20081;-62
2023/12/25 01:39:54;;;;;;;2.67;1.50;;;;;;;;;;1037844;28;20053;-62
2023/12/25 01:40:24;;;;;;;3.50;1.55;;;;;;;;;;1037652;28;20103;-62
2023/12/25 01:40:55;;;;;;;1.50;1.40;;;;;;;;;;1038378;28;20128;-62
2023/12/25 01:41:25;;;;;;;1.10;1.02;;;;;;;;;;1036931;28;20049;-62
2023/12/25 01:41:56;;;;;;;1.38;1.27;;;;;;;;;;1037963;28;20053;-62
2023/12/25 01:42:26;;;;;;;3.00;1.20;;;;;;;;;;1038291;28;20073;-62
2023/12/25 01:42:57;;;;;;;1.60;1.50;;;;;;;;;;1037737;28;20045;-62
2023/12/25 01:43:27;;;;;;;1.63;1.38;;;;;;;;;;1037241;28;20057;-62
2023/12/25 01:43:58;;;;;;;1.92;1.75;;;;;;;;;;1036469;28;20431;-62
2023/12/25 01:44:29;;;;;;;1.60;1.48;;;;;;;;;;1037398;28;20103;-62
2023/12/25 01:44:59;;;;;;;1.35;1.33;;;;;;;;;;1037377;28;20187;-62
2023/12/25 01:45:29;;;;;;;1.30;1.20;;;;;;;;;;1037004;28;20081;-62
2023/12/25 01:46:00;;;;;;;1.25;1.20;;;;;;;;;;1037952;28;20107;-63
2023/12/25 01:46:31;;;;;;;1.95;1.30;;;;;;;;;;1038234;28;20068;-62
2023/12/25 01:47:02;;;;;;;2.00;1.40;;;;;;;;;;1036634;28;20802;-62
2023/12/25 01:47:32;;;;;;;1.30;1.20;;;;;;;;;;1036745;28;20100;-62
2023/12/25 01:48:04;;;;;;;1.20;1.10;;;;;;;;;;1038751;28;20088;-62
2023/12/25 01:48:34;;;;;;;0.98;0.98;;;;;;;;;;1036733;28;20053;-62
2023/12/25 01:49:05;;;;;;;1.30;1.10;;;;;;;;;;1038038;28;20041;-62
2023/12/25 01:49:36;;;;;;;1.40;1.17;;;;;;;;;;1034422;28;20783;-62
2023/12/25 01:50:06;;;;;;;1.00;1.00;;;;;;;;;;1037862;28;20060;-62
2023/12/25 01:50:38;;;;;;;1.75;1.10;;;;;;;;;;1036216;28;20053;-62
2023/12/25 01:51:09;;;;;;;0.90;0.90;;;;;;;;;;1038171;28;20046;-62
2023/12/25 01:51:40;;;;;;;1.38;1.17;;;;;;;;;;1037130;28;20046;-63
2023/12/25 01:52:12;;;;;;;0.82;0.82;;;;;;;;;;1037481;28;20045;-62
2023/12/25 01:52:43;;;;;;;1.00;0.82;;;;;;;;;;1036946;28;20112;-62
2023/12/25 01:53:14;;;;;;;0.80;0.80;;;;;;;;;;1037614;28;20076;-62
2023/12/25 01:53:45;;;;;;;1.50;1.08;;;;;;;;;;1036566;28;20611;-62
2023/12/25 01:54:15;;;;;;;1.10;0.90;;;;;;;;;;1037927;28;20792;-62
2023/12/25 01:54:46;;;;;;;0.90;0.90;;;;;;;;;;1037401;28;21715;-62
2023/12/25 01:55:16;;;;;;;1.13;1.00;;;;;;;;;;1036864;28;20053;-62
2023/12/25 01:55:47;;;;;;;0.90;0.90;;;;;;;;;;1036996;28;20049;-62
2023/12/25 01:56:18;;;;;;;0.95;0.95;;;;;;;;;;1037105;28;20529;-63
2023/12/25 01:56:49;;;;;;;2.92;1.23;;;;;;;;;;1038175;28;20045;-62
2023/12/25 01:57:20;;;;;;;0.85;0.85;;;;;;;;;;1037021;28;20045;-62
2023/12/25 01:57:51;;;;;;;1.55;1.15;;;;;;;;;;1036265;28;20056;-62
2023/12/25 01:58:21;;;;;;;1.05;0.93;;;;;;;;;;1037946;28;20053;-62
2023/12/25 01:58:52;;;;;;;1.38;1.17;;;;;;;;;;1038126;28;20061;-62
2023/12/25 01:59:22;;;;;;;3.15;1.23;;;;;;;;;;1037886;28;20046;-62
2023/12/25 01:59:53;;;;;;;1.73;1.10;;;;;;;;;;1037693;28;20053;-62
2023/12/25 02:00:24;;;;;;;0.90;0.90;;;;;;;;;;1037832;28;20034;-63
2023/12/25 02:00:54;;;;;;;0.98;0.98;;;;;;;;;;1038501;28;20054;-62
2023/12/25 02:01:24;;;;;;;1.30;1.20;;;;;;;;;;1036400;28;20069;-62
2023/12/25 02:01:59;;;;;;;2.08;1.20;;;;;;;;;;1037817;28;20054;-62
2023/12/25 02:02:29;;;;;;;1.45;1.35;;;;;;;;;;1037354;28;20048;-62
2023/12/25 02:03:00;;;;;;;1.30;1.20;;;;;;;;;;1034420;28;20054;-62
2023/12/25 02:03:31;;;;;;;1.65;1.20;;;;;;;;;;1035154;28;20053;-62
2023/12/25 02:04:01;;;;;;;1.75;1.40;;;;;;;;;;1036692;28;20844;-62
2023/12/25 02:04:32;;;;;;;1.50;1.20;;;;;;;;;;1037259;28;20057;-62
2023/12/25 02:05:03;;;;;;;1.52;0.98;;;;;;;;;;1036684;28;22978;-62
2023/12/25 02:05:33;;;;;;;1.60;1.25;;;;;;;;;;1038080;28;20060;-62
2023/12/25 02:06:05;;;;;;;1.20;1.10;;;;;;;;;;1037554;28;20054;-62
2023/12/25 02:06:36;;;;;;;2.35;1.50;;;;;;;;;;1038005;28;20049;-62
2023/12/25 02:07:08;;;;;;;1.50;1.40;;;;;;;;;;1037440;28;20060;-62
2023/12/25 02:07:39;;;;;;;1.67;1.25;;;;;;;;;;1037421;28;20091;-63
2023/12/25 02:08:14;;;;;;;1.08;1.05;;;;;;;;;;1038093;28;20053;-62
2023/12/25 02:08:45;;;;;;;1.25;1.15;;;;;;;;;;1037662;28;20058;-62
2023/12/25 02:09:16;;;;;;;1.30;1.20;;;;;;;;;;1037630;28;20049;-62
2023/12/25 02:09:49;;;;;;;1.15;1.15;;;;;;;;;;1037602;28;20060;-62
2023/12/25 02:10:28;;;;;;;1.33;1.23;;;;;;;;;;1036866;28;20104;-62
2023/12/25 02:11:03;;;;;;;1.67;1.30;;;;;;;;;;1037709;28;20509;-62
2023/12/25 02:11:39;;;;;;;1.50;1.20;;;;;;;;;;1037251;28;20071;-62
2023/12/25 02:12:09;;;;;;;2.15;1.30;;;;;;;;;;1037097;28;20088;-62
2023/12/25 02:12:40;;;;;;;2.10;1.10;;;;;;;;;;1037279;28;20155;-62
2023/12/25 02:13:11;;;;;;;1.20;1.10;;;;;;;;;;1037201;28;20055;-62
2023/12/25 02:13:41;;;;;;;1.40;1.17;;;;;;;;;;1037657;28;20057;-63
2023/12/25 02:14:13;;;;;;;1.38;1.27;;;;;;;;;;1036765;28;20057;-62
2023/12/25 02:14:44;;;;;;;1.30;1.20;;;;;;;;;;1038105;28;20607;-62
2023/12/25 02:15:14;;;;;;;1.92;1.17;;;;;;;;;;1037651;28;20056;-62
2023/12/25 02:15:47;;;;;;;1.60;1.50;;;;;;;;;;1038521;28;20140;-62
2023/12/25 02:16:18;;;;;;;1.50;1.40;;;;;;;;;;1037811;28;20045;-62
2023/12/25 02:16:49;;;;;;;3.08;1.50;;;;;;;;;;1037580;28;20064;-61
2023/12/25 02:17:20;;;;;;;1.92;1.40;;;;;;;;;;1038142;28;20076;-62
2023/12/25 02:17:51;;;;;;;1.40;1.30;;;;;;;;;;1037064;28;20126;-62
2023/12/25 02:18:22;;;;;;;3.47;1.60;;;;;;;;;;1038412;28;20445;-62
2023/12/25 02:18:53;;;;;;;2.33;1.50;;;;;;;;;;1037673;28;20056;-62
2023/12/25 02:19:31;;;;;;;2.10;1.90;;;;;;;;;;1037302;28;20044;-62
2023/12/25 02:20:03;;;;;;;2.05;1.85;;;;;;;;;;1037101;28;20156;-63
2023/12/25 02:20:34;;;;;;;1.60;1.50;;;;;;;;;;1038141;28;20125;-62
2023/12/25 02:21:05;;;;;;;2.20;1.55;;;;;;;;;;1037865;28;20052;-62
2023/12/25 02:21:35;;;;;;;10.63;1.63;;;;;;;;;;1037694;28;20391;-63
2023/12/25 02:22:07;;;;;;;3.30;1.33;;;;;;;;;;1037260;28;20289;-62
2023/12/25 02:22:38;;;;;;;1.60;1.50;;;;;;;;;;1037705;28;20052;-62
2023/12/25 02:23:12;;;;;;;1.70;1.60;;;;;;;;;;1035758;28;20046;-62
2023/12/25 02:23:46;;;;;;;3.90;1.60;;;;;;;;;;1037577;28;20069;-62
2023/12/25 02:24:24;;;;;;;1.80;1.70;;;;;;;;;;1036154;28;20095;-62
2023/12/25 02:25:21;;;;;;;3.25;1.85;;;;;;;;;;1037317;28;20395;-62
2023/12/25 02:25:56;;;;;;;1.77;1.67;;;;;;;;;;1037332;28;20055;-62
2023/12/25 02:26:27;;;;;;;2.30;1.70;;;;;;;;;;1037155;28;20084;-62
2023/12/25 02:26:58;;;;;;;2.00;1.80;;;;;;;;;;1038803;28;20057;-62
2023/12/25 02:27:31;;;;;;;3.60;2.00;;;;;;;;;;1036961;28;20111;-62
2023/12/25 02:28:03;;;;;;;2.05;1.80;;;;;;;;;;1036873;28;20045;-62
2023/12/25 02:28:33;;;;;;;4.60;2.20;;;;;;;;;;1037393;28;20061;-62
2023/12/25 02:29:04;;;;;;;2.28;2.00;;;;;;;;;;1037074;28;20056;-65
2023/12/25 02:29:34;;;;;;;2.83;2.47;;;;;;;;;;1035855;28;20053;-64
2023/12/25 02:30:06;;;;;;;2.20;2.10;;;;;;;;;;1037163;28;20052;-65
2023/12/25 02:30:37;;;;;;;3.22;1.95;;;;;;;;;;1037404;28;21527;-62
2023/12/25 02:31:07;;;;;;;2.97;2.03;;;;;;;;;;1037136;28;20522;-63
2023/12/25 02:31:39;;;;;;;2.63;2.42;;;;;;;;;;1037696;28;20205;-62
2023/12/25 02:32:09;;;;;;;2.13;1.92;;;;;;;;;;1038101;28;20049;-62
2023/12/25 02:32:41;;;;;;;2.42;1.95;;;;;;;;;;1037059;28;20057;-62
2023/12/25 02:33:11;;;;;;;2.30;2.10;;;;;;;;;;1037075;28;20073;-63
2023/12/25 02:33:41;;;;;;;2.20;2.03;;;;;;;;;;1036184;28;20178;-62
2023/12/25 02:34:12;;;;;;;2.92;2.03;;;;;;;;;;1036674;28;20057;-62
2023/12/25 02:34:44;;;;;;;2.30;2.08;;;;;;;;;;1037623;28;20049;-62
2023/12/25 02:35:14;;;;;;;1.95;1.85;;;;;;;;;;1037926;28;20099;-62
2023/12/25 02:35:45;;;;;;;2.13;1.92;;;;;;;;;;1036805;28;20099;-62
2023/12/25 02:36:15;;;;;;;2.05;1.85;;;;;;;;;;1036008;28;20049;-63
2023/12/25 02:36:46;;;;;;;2.10;1.73;;;;;;;;;;1036396;28;20492;-62
2023/12/25 02:37:17;;;;;;;1.70;1.60;;;;;;;;;;1037415;28;20136;-62
2023/12/25 02:37:48;;;;;;;1.73;1.63;;;;;;;;;;1037535;28;20103;-62
2023/12/25 02:38:18;;;;;;;1.88;1.60;;;;;;;;;;1035989;28;20449;-63
2023/12/25 02:38:49;;;;;;;2.83;2.55;;;;;;;;;;1036831;28;20505;-62
2023/12/25 02:39:19;;;;;;;3.10;1.60;;;;;;;;;;1038438;28;20056;-62
2023/12/25 02:39:50;;;;;;;2.80;1.63;;;;;;;;;;1037691;28;20128;-62
2023/12/25 02:40:22;;;;;;;1.70;1.60;;;;;;;;;;1036193;28;20060;-63
2023/12/25 02:40:53;;;;;;;1.40;1.30;;;;;;;;;;1038010;28;20061;-62
2023/12/25 02:41:23;;;;;;;2.05;1.52;;;;;;;;;;1037219;28;20049;-62
2023/12/25 02:41:54;;;;;;;3.15;1.30;;;;;;;;;;1037905;28;20092;-62
2023/12/25 02:42:24;;;;;;;2.75;1.63;;;;;;;;;;1037098;28;20038;-62
2023/12/25 02:42:55;;;;;;;3.92;1.40;;;;;;;;;;1038076;28;20046;-63
2023/12/25 02:43:25;;;;;;;1.40;1.30;;;;;;;;;;1037483;28;20045;-63
2023/12/25 02:43:56;;;;;;;1.30;1.20;;;;;;;;;;1037150;28;20057;-62
2023/12/25 02:44:26;;;;;;;1.60;1.50;;;;;;;;;;1035586;28;20132;-62
2023/12/25 02:44:57;;;;;;;1.17;1.10;;;;;;;;;;1037607;28;20077;-62
2023/12/25 02:45:27;;;;;;;1.52;1.23;;;;;;;;;;1037202;28;20053;-63
2023/12/25 02:45:58;;;;;;;2.97;1.50;;;;;;;;;;1037654;28;20090;-65
2023/12/25 02:46:29;;;;;;;4.60;1.30;;;;;;;;;;1036838;28;20042;-65
2023/12/25 02:46:59;;;;;;;2.35;1.40;;;;;;;;;;1037604;28;20565;-65
2023/12/25 02:47:30;;;;;;;1.30;1.20;;;;;;;;;;1037895;28;20561;-65
2023/12/25 02:48:00;;;;;;;3.25;1.35;;;;;;;;;;1036756;28;20526;-65
2023/12/25 02:48:31;;;;;;;1.20;1.08;;;;;;;;;;1037756;28;20045;-65
2023/12/25 02:49:01;;;;;;;1.70;1.25;;;;;;;;;;1037492;28;20132;-65
2023/12/25 02:49:31;;;;;;;1.70;1.30;;;;;;;;;;1037149;28;20099;-62
2023/12/25 02:50:02;;;;;;;2.72;1.35;;;;;;;;;;1037150;28;20049;-62
2023/12/25 02:50:34;;;;;;;3.17;1.50;;;;;;;;;;1037319;28;20053;-62
2023/12/25 02:51:05;;;;;;;2.35;1.23;;;;;;;;;;1038496;28;20050;-63
2023/12/25 02:51:35;;;;;;;1.85;1.35;;;;;;;;;;1037002;28;20046;-63
2023/12/25 02:52:06;;;;;;;1.30;1.20;;;;;;;;;;1036991;28;20580;-62
2023/12/25 02:52:36;;;;;;;0.93;0.93;;;;;;;;;;1037102;28;20060;-62
2023/12/25 02:53:07;;;;;;;1.33;1.13;;;;;;;;;;1037483;28;20110;-62
2023/12/25 02:53:37;;;;;;;1.00;1.00;;;;;;;;;;1037367;28;20061;-62
2023/12/25 02:54:08;;;;;;;2.75;1.13;;;;;;;;;;1030852;28;20069;-63
2023/12/25 02:54:38;;;;;;;2.67;1.50;;;;;;;;;;1032839;28;20125;-63
2023/12/25 02:55:09;;;;;;;4.47;1.40;;;;;;;;;;1037525;28;20103;-63
2023/12/25 02:55:40;;;;;;;1.83;1.13;;;;;;;;;;1036277;28;20054;-63
2023/12/25 02:56:10;;;;;;;2.55;1.40;;;;;;;;;;1036668;28;20050;-62
2023/12/25 02:56:40;;;;;;;1.00;1.00;;;;;;;;;;1038339;28;20152;-62
2023/12/25 02:57:11;;;;;;;2.15;1.10;;;;;;;;;;1035918;28;20103;-63
2023/12/25 02:57:42;;;;;;;1.92;1.15;;;;;;;;;;1037207;28;20057;-62
2023/12/25 02:58:12;;;;;;;1.35;0.90;;;;;;;;;;1036626;28;20053;-62
2023/12/25 02:58:43;;;;;;;1.02;0.98;;;;;;;;;;1037257;28;20049;-63
2023/12/25 02:59:13;;;;;;;2.03;1.13;;;;;;;;;;1038308;28;20045;-62
2023/12/25 02:59:44;;;;;;;1.60;0.95;;;;;;;;;;1037016;28;20061;-62
2023/12/25 03:00:15;;;;;;;2.08;1.05;;;;;;;;;;1036874;28;20052;-62
2023/12/25 03:00:45;;;;;;;2.15;1.10;;;;;;;;;;1037123;28;20187;-62
2023/12/25 03:01:16;;;;;;;0.80;0.80;;;;;;;;;;1037982;28;20049;-62
2023/12/25 03:01:46;;;;;;;2.17;1.02;;;;;;;;;;1037329;28;20053;-62
2023/12/25 03:02:16;;;;;;;1.58;1.20;;;;;;;;;;1035637;28;20740;-62
2023/12/25 03:02:47;;;;;;;6.40;1.13;;;;;;;;;;1036861;28;20049;-63
2023/12/25 03:03:18;;;;;;;2.97;1.23;;;;;;;;;;1038416;28;20049;-63
2023/12/25 03:03:48;;;;;;;1.33;0.80;;;;;;;;;;1036208;28;20060;-62
2023/12/25 03:04:19;;;;;;;0.73;0.73;;;;;;;;;;1037377;28;20057;-62
2023/12/25 03:04:49;;;;;;;1.30;0.77;;;;;;;;;;1037181;28;20119;-63
2023/12/25 03:05:20;;;;;;;0.77;0.77;;;;;;;;;;1037741;28;20740;-63
2023/12/25 03:05:50;;;;;;;2.03;1.00;;;;;;;;;;1038139;28;20101;-62